Time;durP1;ratioP1;P1;durP2;ratioP2;P2;SDS_P1;SDS_P2;PMS_P1;PMS_P2;Temp;Humidity;BMP_temperature;BMP_pressure;BME280_temperature;BME280_humidity;BME280_pressure;Samples;Min_cycle;Max_cycle;Signal;HPM_P1;HPM_P2
2022/08/23 00:03:28;;;;;;;25.60;15.90;;;;;;;13.49;100.00;96759.53;10492837;28;20182;-74
2022/08/23 00:08:28;;;;;;;23.50;15.85;;;;;;;13.58;100.00;96754.19;10493585;28;20325;-74
2022/08/23 00:13:30;;;;;;;21.65;14.52;;;;;;;13.54;100.00;96751.91;10492748;28;20682;-74
2022/08/23 00:18:31;;;;;;;26.63;15.68;;;;;;;13.66;100.00;96756.75;10493249;28;20190;-74
2022/08/23 00:23:31;;;;;;;22.08;15.77;;;;;;;13.66;100.00;96752.34;10492832;28;20186;-74
2022/08/23 00:28:32;;;;;;;21.95;15.40;;;;;;;13.66;100.00;96757.59;10474509;28;20195;-74
2022/08/23 00:33:32;;;;;;;27.75;16.58;;;;;;;13.63;100.00;96751.84;10492745;28;20215;-74
2022/08/23 00:38:33;;;;;;;21.48;15.40;;;;;;;13.62;100.00;96755.50;10492572;28;20183;-74
2022/08/23 00:48:56;;;;;;;24.10;16.17;;;;;;;13.60;100.00;96750.41;10492382;28;20553;-74
2022/08/23 00:54:00;;;;;;;32.47;18.77;;;;;;;13.64;100.00;96750.88;10473977;28;20231;-74
2022/08/23 00:59:00;;;;;;;33.72;19.88;;;;;;;13.70;100.00;96745.72;10491686;28;20209;-74
2022/08/23 01:04:01;;;;;;;35.55;19.58;;;;;;;13.71;100.00;96738.66;10491348;28;20233;-74
2022/08/23 01:09:07;;;;;;;26.85;16.83;;;;;;;13.73;100.00;96736.66;10473713;28;20663;-74
2022/08/23 01:14:14;;;;;;;31.75;19.90;;;;;;;13.64;100.00;96735.06;10463358;28;20215;-73
2022/08/23 01:19:28;;;;;;;27.40;18.33;;;;;;;13.66;100.00;96738.34;10482424;28;20194;-74
2022/08/23 01:24:29;;;;;;;29.30;18.67;;;;;;;13.65;100.00;96747.25;10480860;28;20266;-73
2022/08/23 01:29:29;;;;;;;28.88;19.20;;;;;;;13.65;100.00;96744.63;10465053;28;20670;-74
2022/08/23 01:34:30;;;;;;;28.98;18.40;;;;;;;13.63;100.00;96755.31;10499550;28;20219;-74
2022/08/23 01:39:30;;;;;;;24.33;18.13;;;;;;;13.63;100.00;96749.22;10499965;28;20198;-73
2022/08/23 01:44:31;;;;;;;31.83;20.00;;;;;;;13.63;100.00;96759.75;10501689;28;20183;-74
2022/08/23 01:49:32;;;;;;;31.15;19.83;;;;;;;13.63;100.00;96765.84;10481617;28;20192;-74
2022/08/23 01:54:33;;;;;;;28.25;20.40;;;;;;;13.69;100.00;96764.31;10480110;28;20262;-74
2022/08/23 01:59:33;;;;;;;32.72;20.92;;;;;;;13.66;100.00;96762.03;10497128;28;20297;-74
2022/08/23 02:04:34;;;;;;;33.60;19.65;;;;;;;13.66;100.00;96759.41;10463125;28;20187;-74
2022/08/23 02:09:34;;;;;;;35.03;20.67;;;;;;;13.72;100.00;96769.22;10480239;28;20184;-76
2022/08/23 02:14:40;;;;;;;34.40;20.88;;;;;;;13.70;100.00;96772.03;10462660;28;20400;-74
2022/08/23 02:19:44;;;;;;;31.42;19.75;;;;;;;13.68;100.00;96766.13;10479411;28;20187;-75
2022/08/23 02:24:46;;;;;;;33.25;20.40;;;;;;;13.70;100.00;96769.41;10477682;28;20190;-74
2022/08/23 02:29:46;;;;;;;35.33;20.73;;;;;;;13.69;100.00;96772.22;10495446;28;20217;-74
2022/08/23 02:34:46;;;;;;;40.55;22.85;;;;;;;13.69;100.00;96774.84;10496657;28;20241;-74
2022/08/23 02:39:47;;;;;;;33.55;21.17;;;;;;;13.71;100.00;96772.88;10496348;28;20233;-75
2022/08/23 02:44:48;;;;;;;31.67;20.08;;;;;;;13.73;100.00;96768.25;10496310;28;20237;-75
2022/08/23 02:49:48;;;;;;;38.30;20.83;;;;;;;13.72;100.00;96770.06;10461706;28;20191;-75
2022/08/23 02:54:49;;;;;;;27.52;19.40;;;;;;;13.73;100.00;96778.78;10495310;28;20642;-75
2022/08/23 02:59:49;;;;;;;30.20;19.65;;;;;;;13.70;100.00;96771.22;10494807;28;20274;-76
2022/08/23 03:04:50;;;;;;;29.58;19.48;;;;;;;13.72;100.00;96779.75;10491584;28;20282;-73
2022/08/23 03:09:51;;;;;;;25.35;16.90;;;;;;;13.71;100.00;96778.16;10474092;28;20190;-73
2022/08/23 03:14:52;;;;;;;20.42;16.95;;;;;;;13.75;100.00;96782.03;10473507;28;20227;-74
2022/08/23 03:19:52;;;;;;;27.85;18.83;;;;;;;13.76;100.00;96783.69;10472282;28;20281;-75
2022/08/23 03:24:53;;;;;;;29.08;19.98;;;;;;;13.77;100.00;96772.19;10472251;28;20183;-74
2022/08/23 03:29:56;;;;;;;33.30;21.40;;;;;;;13.73;100.00;96787.47;10471839;28;20191;-73
2022/08/23 03:34:56;;;;;;;40.92;23.85;;;;;;;13.73;100.00;96792.75;10470811;28;20219;-73
2022/08/23 03:39:57;;;;;;;30.02;21.65;;;;;;;13.81;100.00;96796.34;10488880;28;20306;-73
2022/08/23 03:44:59;;;;;;;30.55;22.00;;;;;;;13.76;100.00;96802.13;10489899;28;20175;-74
2022/08/23 03:49:59;;;;;;;30.58;20.33;;;;;;;13.82;100.00;96804.06;10471834;28;20183;-74
2022/08/23 03:54:59;;;;;;;30.08;18.25;;;;;;;13.78;100.00;96815.91;10471527;28;20257;-74
2022/08/23 04:00:06;;;;;;;28.90;19.58;;;;;;;13.77;100.00;96810.84;10471478;28;20663;-73
2022/08/23 04:05:14;;;;;;;30.27;19.85;;;;;;;13.77;100.00;96816.94;10476589;28;20195;-73
2022/08/23 04:10:41;;;;;;;34.00;20.10;;;;;;;13.77;100.00;96819.56;10488532;28;20203;-73
2022/08/23 04:15:41;;;;;;;36.95;24.00;;;;;;;13.72;100.00;96820.09;10493153;28;20226;-73
2022/08/23 04:20:42;;;;;;;47.45;24.27;;;;;;;13.75;100.00;96824.16;10492375;28;20206;-73
2022/08/23 04:25:44;;;;;;;37.28;21.73;;;;;;;13.81;100.00;96830.56;10474706;28;20194;-73
2022/08/23 04:30:44;;;;;;;33.08;21.52;;;;;;;13.85;100.00;96831.88;10492390;28;20195;-74
2022/08/23 04:35:45;;;;;;;36.17;22.48;;;;;;;13.84;100.00;96835.47;10473947;28;20231;-74
2022/08/23 04:46:09;;;;;;;36.38;23.75;;;;;;;13.85;100.00;96837.94;10492400;28;20187;-74
2022/08/23 04:51:10;;;;;;;38.72;23.92;;;;;;;13.89;100.00;96841.88;10482605;28;20278;-74
2022/08/23 04:56:11;;;;;;;35.85;24.50;;;;;;;13.84;100.00;96846.84;10482259;28;20238;-73
2022/08/23 05:01:14;;;;;;;41.83;23.40;;;;;;;13.83;100.00;96841.75;10482223;28;20198;-73
2022/08/23 05:06:15;;;;;;;23.23;19.35;;;;;;;13.80;100.00;96847.34;10482204;28;20184;-74
2022/08/23 05:11:17;;;;;;;24.02;17.92;;;;;;;13.75;100.00;96842.59;10481949;28;20184;-73
2022/08/23 05:16:19;;;;;;;28.13;18.55;;;;;;;13.81;100.00;96856.91;10481770;28;20215;-74
2022/08/23 05:21:31;;;;;;;31.17;20.48;;;;;;;13.83;100.00;96862.84;10480829;28;20192;-73
2022/08/23 05:26:32;;;;;;;35.85;23.02;;;;;;;13.80;100.00;96858.72;10499666;28;20184;-74
2022/08/23 05:31:32;;;;;;;32.63;23.38;;;;;;;13.86;100.00;96867.75;10480478;28;20747;-73
2022/08/23 05:36:36;;;;;;;36.35;24.33;;;;;;;13.88;100.00;96877.09;10480823;28;20203;-74
2022/08/23 05:41:38;;;;;;;35.08;23.40;;;;;;;13.93;100.00;96881.84;10481069;28;20337;-74
2022/08/23 05:46:41;;;;;;;40.00;27.33;;;;;;;13.88;100.00;96885.00;10480182;28;20219;-74
2022/08/23 05:51:52;;;;;;;37.63;25.45;;;;;;;13.93;100.00;96886.31;10481010;28;20274;-73
2022/08/23 05:56:55;;;;;;;42.28;24.05;;;;;;;13.99;100.00;96894.31;10463571;28;20272;-74
2022/08/23 06:01:56;;;;;;;40.60;26.00;;;;;;;13.97;100.00;96906.03;10479990;28;20264;-73
2022/08/23 06:06:57;;;;;;;35.60;24.77;;;;;;;14.09;100.00;96909.91;10497676;28;20266;-74
2022/08/23 06:11:58;;;;;;;48.00;29.20;;;;;;;14.02;100.00;96908.97;10506952;28;20741;-74
2022/08/23 06:16:59;;;;;;;47.17;29.10;;;;;;;14.06;100.00;96918.19;10521164;28;20568;-74
2022/08/23 06:22:02;;;;;;;43.90;27.95;;;;;;;14.15;100.00;96914.50;10521016;28;20179;-74
2022/08/23 06:27:07;;;;;;;51.30;26.95;;;;;;;14.28;100.00;96916.53;10518670;28;20193;-74
2022/08/23 06:32:07;;;;;;;44.20;27.98;;;;;;;14.22;100.00;96917.25;10542653;28;20236;-74
2022/08/23 06:37:15;;;;;;;53.47;29.00;;;;;;;14.17;100.00;96923.03;10560169;28;20210;-75
2022/08/23 06:42:35;;;;;;;44.67;28.52;;;;;;;14.19;100.00;96922.88;10577924;28;20198;-75
2022/08/23 06:47:36;;;;;;;44.63;28.60;;;;;;;14.19;100.00;96922.88;10549435;28;20195;-75
2022/08/23 06:52:37;;;;;;;48.88;27.95;;;;;;;14.26;100.00;96921.19;10516968;28;20225;-74
2022/08/23 06:57:57;;;;;;;39.85;25.88;;;;;;;14.34;100.00;96925.56;10516589;28;20198;-74
2022/08/23 07:03:23;;;;;;;41.08;23.35;;;;;;;14.34;100.00;96926.38;10526258;28;20284;-74
2022/08/23 07:08:42;;;;;;;33.72;22.05;;;;;;;14.42;100.00;96917.59;10578534;28;20193;-74
2022/08/23 07:13:44;;;;;;;33.03;22.42;;;;;;;14.32;100.00;96914.38;10544796;28;20210;-74
2022/08/23 07:18:45;;;;;;;41.10;22.80;;;;;;;14.31;100.00;96905.66;10517145;28;20287;-75
2022/08/23 07:23:45;;;;;;;29.88;21.20;;;;;;;14.54;100.00;96907.47;10515933;28;20185;-75
2022/08/23 07:28:46;;;;;;;38.05;21.77;;;;;;;14.55;100.00;96907.28;10516412;28;20193;-74
2022/08/23 07:33:47;;;;;;;36.25;21.77;;;;;;;14.71;100.00;96911.63;10515853;28;20237;-74
2022/08/23 07:38:52;;;;;;;33.15;23.70;;;;;;;14.80;100.00;96912.41;10534287;28;20190;-74
2022/08/23 07:43:53;;;;;;;40.10;21.50;;;;;;;14.76;100.00;96904.03;10516333;28;20319;-74
2022/08/23 07:48:56;;;;;;;36.75;21.23;;;;;;;15.10;100.00;96905.38;10515906;28;20692;-76
2022/08/23 07:54:00;;;;;;;34.95;21.83;;;;;;;15.38;100.00;96902.09;10514169;28;20226;-75
2022/08/23 07:59:02;;;;;;;28.27;19.77;;;;;;;15.51;100.00;96893.53;10535149;28;20186;-76
2022/08/23 08:04:12;;;;;;;27.92;17.73;;;;;;;16.04;100.00;96878.34;10500215;28;20197;-76
2022/08/23 08:09:15;;;;;;;23.23;16.60;;;;;;;15.86;100.00;96873.50;10515344;28;20196;-76
2022/08/23 08:14:16;;;;;;;22.45;17.05;;;;;;;16.19;100.00;96873.00;10499211;28;20303;-76
2022/08/23 08:19:25;;;;;;;20.63;15.57;;;;;;;16.20;100.00;96869.38;10514559;28;20324;-77
2022/08/23 08:24:57;;;;;;;23.10;16.45;;;;;;;16.13;100.00;96862.38;10497787;28;20191;-78
2022/08/23 08:29:58;;;;;;;21.83;16.23;;;;;;;16.10;100.00;96858.28;10514650;28;20706;-78
2022/08/23 08:34:59;;;;;;;22.13;17.30;;;;;;;16.22;100.00;96858.63;10531734;28;20217;-78
2022/08/23 08:40:00;;;;;;;24.42;19.05;;;;;;;16.30;100.00;96855.84;10512206;28;20198;-78
2022/08/23 08:45:10;;;;;;;19.60;16.42;;;;;;;16.60;100.00;96855.69;10512822;28;20187;-77
2022/08/23 08:50:22;;;;;;;23.88;14.85;;;;;;;16.57;100.00;96854.25;10496338;28;20187;-78
2022/08/23 08:55:35;;;;;;;19.50;14.80;;;;;;;16.82;100.00;96851.19;10495589;28;20997;-77
2022/08/23 09:00:37;;;;;;;14.70;13.13;;;;;;;17.12;100.00;96837.78;10496255;28;20186;-77
2022/08/23 09:05:51;;;;;;;13.88;10.13;;;;;;;17.05;100.00;96844.84;10516500;28;20182;-78
2022/08/23 09:10:53;;;;;;;12.75;10.15;;;;;;;17.25;100.00;96829.88;10519414;28;20260;-77
2022/08/23 09:16:02;;;;;;;15.60;10.63;;;;;;;17.43;100.00;96832.03;10495372;28;20219;-77
2022/08/23 09:21:06;;;;;;;15.68;11.65;;;;;;;17.23;100.00;96831.13;10495109;28;20190;-78
2022/08/23 09:26:29;;;;;;;15.80;11.95;;;;;;;16.94;100.00;96838.28;10512267;28;20183;-78
2022/08/23 09:31:40;;;;;;;16.25;13.40;;;;;;;17.00;100.00;96839.31;10511014;28;20296;-76
2022/08/23 09:36:41;;;;;;;16.48;12.93;;;;;;;17.08;100.00;96834.69;10502774;28;20223;-74
2022/08/23 09:41:43;;;;;;;20.75;13.52;;;;;;;17.08;100.00;96832.03;10519006;28;20201;-74
2022/08/23 09:46:45;;;;;;;14.15;10.90;;;;;;;17.27;100.00;96835.00;10499943;28;20563;-75
2022/08/23 09:51:50;;;;;;;11.10;8.70;;;;;;;17.54;100.00;96830.63;10518797;28;20598;-74
2022/08/23 09:57:03;;;;;;;12.88;9.75;;;;;;;17.39;100.00;96844.00;10536595;28;20230;-75
2022/08/23 10:02:31;;;;;;;14.40;9.88;;;;;;;17.58;100.00;96831.03;10504163;28;20659;-74
2022/08/23 10:07:44;;;;;;;13.75;8.52;;;;;;;18.18;100.00;96824.13;10479279;28;20194;-75
2022/08/23 10:12:49;;;;;;;13.13;7.88;;;;;;;18.51;100.00;96828.66;10496606;28;20215;-75
2022/08/23 10:17:57;;;;;;;10.13;7.78;;;;;;;18.15;100.00;96832.47;10479389;28;20213;-74
2022/08/23 10:23:14;;;;;;;10.05;6.93;;;;;;;17.60;100.00;96835.13;10463301;28;20191;-76
2022/08/23 10:34:13;;;;;;;10.13;7.20;;;;;;;17.52;100.00;96835.31;10519663;28;20218;-73
2022/08/23 10:39:23;;;;;;;9.25;6.85;;;;;;;17.55;100.00;96842.03;10502150;28;20183;-74
2022/08/23 10:44:33;;;;;;;10.45;6.97;;;;;;;17.59;100.00;96838.00;10502010;28;20220;-75
2022/08/23 10:49:37;;;;;;;9.75;6.97;;;;;;;17.98;100.00;96844.47;10520059;28;20194;-74
2022/08/23 10:54:47;;;;;;;13.18;6.03;;;;;;;18.20;100.00;96833.72;10503662;28;20223;-74
2022/08/23 10:59:52;;;;;;;8.35;5.40;;;;;;;18.62;100.00;96837.00;10465666;28;20179;-75
2022/08/23 11:04:58;;;;;;;8.18;4.65;;;;;;;18.88;100.00;96828.22;10508917;28;20540;-75
2022/08/23 11:10:07;;;;;;;6.30;4.07;;;;;;;19.08;100.00;96830.84;10501218;28;20199;-74
2022/08/23 11:15:13;;;;;;;8.48;4.80;;;;;;;18.59;100.00;96832.09;10516267;28;20215;-75
2022/08/23 11:20:49;;;;;;;10.13;4.82;;;;;;;17.70;100.00;96840.06;10473446;28;20219;-75
2022/08/23 11:25:52;;;;;;;7.80;4.90;;;;;;;17.74;100.00;96845.78;10474567;28;20191;-74
2022/08/23 11:31:14;;;;;;;11.05;5.07;;;;;;;17.87;100.00;96845.00;10474702;28;20201;-74
2022/08/23 11:36:22;;;;;;;8.57;4.85;;;;;;;17.89;100.00;96841.19;10502151;28;20641;-74
2022/08/23 11:41:29;;;;;;;8.50;5.05;;;;;;;17.80;100.00;96850.31;10516002;28;20191;-75
2022/08/23 11:46:34;;;;;;;9.35;4.82;;;;;;;17.47;100.00;96865.06;10516960;28;20197;-74
2022/08/23 11:52:05;;;;;;;10.07;5.13;;;;;;;17.50;100.00;96863.00;10500659;28;20183;-75
2022/08/23 11:57:18;;;;;;;9.85;5.80;;;;;;;17.50;100.00;96868.31;10516231;28;20287;-74
2022/08/23 12:02:31;;;;;;;7.13;5.15;;;;;;;17.52;100.00;96879.53;10516112;28;20551;-75
2022/08/23 12:08:04;;;;;;;9.50;6.20;;;;;;;17.62;100.00;96874.69;10515644;28;20852;-73
2022/08/23 12:13:17;;;;;;;9.65;5.72;;;;;;;17.82;100.00;96872.94;10478067;28;20755;-75
2022/08/23 12:18:17;;;;;;;9.80;5.93;;;;;;;17.45;100.00;96880.31;10533594;28;20669;-74
2022/08/23 12:23:19;;;;;;;9.57;6.78;;;;;;;17.34;100.00;96893.31;10514605;28;20191;-75
2022/08/23 12:35:03;;;;;;;9.98;6.53;;;;;;;17.47;100.00;96885.41;10532371;28;20222;-74
2022/08/23 12:40:13;;;;;;;8.70;6.40;;;;;;;17.62;100.00;96878.13;10513090;28;20194;-75
2022/08/23 12:45:21;;;;;;;12.55;6.07;;;;;;;17.90;100.00;96874.63;10496645;28;20633;-75
2022/08/23 12:50:27;;;;;;;8.10;5.25;;;;;;;18.05;100.00;96863.03;10530698;28;20773;-73
2022/08/23 12:55:35;;;;;;;10.68;6.22;;;;;;;18.03;100.00;96863.25;10512850;28;20610;-73
2022/08/23 13:00:49;;;;;;;7.85;6.00;;;;;;;18.28;100.00;96860.03;10530860;28;20198;-74
2022/08/23 13:06:02;;;;;;;8.85;6.80;;;;;;;18.24;100.00;96864.09;10528265;28;20193;-76
2022/08/23 13:11:04;;;;;;;9.45;5.95;;;;;;;18.30;100.00;96861.47;10516033;28;20286;-74
2022/08/23 13:16:30;;;;;;;11.85;6.63;;;;;;;18.07;100.00;96867.13;10520146;28;20709;-74
2022/08/23 13:21:31;;;;;;;8.43;6.90;;;;;;;17.99;100.00;96862.00;10539737;28;20205;-74
2022/08/23 13:26:39;;;;;;;9.90;5.90;;;;;;;18.28;100.00;96870.63;10538020;28;20520;-74
2022/08/23 13:31:55;;;;;;;9.07;6.20;;;;;;;18.40;100.00;96863.72;10537455;28;20194;-74
2022/08/23 13:36:59;;;;;;;8.10;6.10;;;;;;;18.13;100.00;96862.84;10556868;28;20202;-75
2022/08/23 13:42:00;;;;;;;9.20;5.72;;;;;;;18.46;100.00;96864.75;10561311;28;20589;-75
2022/08/23 13:47:00;;;;;;;9.70;4.90;;;;;;;18.51;100.00;96865.78;10507941;28;20203;-75
2022/08/23 13:52:00;;;;;;;14.20;6.05;;;;;;;18.29;100.00;96867.78;10513645;28;20198;-76
2022/08/23 13:57:05;;;;;;;6.80;5.38;;;;;;;18.29;100.00;96866.97;10539257;28;20780;-76
2022/08/23 14:02:11;;;;;;;7.22;5.20;;;;;;;18.41;100.00;96860.06;10554376;28;20194;-77
2022/08/23 14:07:12;;;;;;;9.82;5.32;;;;;;;18.61;100.00;96864.56;10561051;28;20273;-77
2022/08/23 14:12:21;;;;;;;9.68;4.90;;;;;;;18.53;100.00;96861.09;10562382;28;20190;-77
2022/08/23 14:17:21;;;;;;;7.80;5.55;;;;;;;18.38;100.00;96860.47;10543598;28;20201;-77
2022/08/23 14:22:24;;;;;;;5.80;5.20;;;;;;;18.38;100.00;96862.28;10518926;28;20213;-77
2022/08/23 14:27:25;;;;;;;8.70;4.57;;;;;;;18.58;100.00;96862.31;10536646;28;20684;-78
2022/08/23 14:32:26;;;;;;;7.80;4.55;;;;;;;18.42;100.00;96872.28;10501505;28;20222;-79
2022/08/23 14:37:26;;;;;;;7.22;4.70;;;;;;;18.53;100.00;96860.28;10536464;28;20214;-78
2022/08/23 14:42:26;;;;;;;5.68;4.03;;;;;;;18.67;100.00;96866.41;10535315;28;20194;-78
2022/08/23 14:47:27;;;;;;;6.40;4.20;;;;;;;19.05;100.00;96861.28;10537233;28;20202;-79
2022/08/23 14:52:27;;;;;;;8.50;4.50;;;;;;;19.24;100.00;96859.59;10536063;28;20217;-79
2022/08/23 14:57:28;;;;;;;11.95;5.07;;;;;;;19.19;100.00;96856.78;10543341;28;20610;-77
2022/08/23 15:02:28;;;;;;;11.90;4.95;;;;;;;19.07;100.00;96858.44;10533030;28;20638;-78
2022/08/23 15:07:28;;;;;;;11.13;5.15;;;;;;;19.34;100.00;96861.00;10516280;28;20202;-77
2022/08/23 15:12:29;;;;;;;8.60;5.07;;;;;;;19.14;100.00;96864.56;10532623;28;20211;-77
2022/08/23 15:17:29;;;;;;;6.28;4.97;;;;;;;19.42;100.00;96858.16;10534075;28;20196;-77
2022/08/23 15:22:30;;;;;;;10.63;5.53;;;;;;;19.16;100.00;96859.84;10532984;28;20194;-78
2022/08/23 15:27:31;;;;;;;7.40;5.13;;;;;;;19.13;100.00;96864.75;10549591;28;20254;-79
2022/08/23 15:32:31;;;;;;;7.47;5.05;;;;;;;18.99;100.00;96858.63;10565542;28;20221;-77
2022/08/23 15:37:32;;;;;;;6.57;4.72;;;;;;;18.81;100.00;96860.06;10554430;28;20328;-78
2022/08/23 15:42:33;;;;;;;10.15;4.82;;;;;;;18.87;100.00;96861.91;10552233;28;20698;-78
2022/08/23 15:47:38;;;;;;;7.75;4.70;;;;;;;18.85;100.00;96869.28;10565576;28;20256;-78
2022/08/23 15:52:39;;;;;;;6.20;5.13;;;;;;;18.75;100.00;96865.38;10532111;28;20214;-78
2022/08/23 15:57:50;;;;;;;12.25;8.27;;;;;;;18.93;100.00;96859.44;10530822;28;20253;-79
2022/08/23 16:02:52;;;;;;;5.72;5.13;;;;;;;19.16;100.00;96859.03;10502894;28;20198;-79
2022/08/23 16:07:54;;;;;;;8.85;4.63;;;;;;;19.04;100.00;96858.84;10512416;28;20546;-79
2022/08/23 16:12:55;;;;;;;10.13;5.20;;;;;;;18.64;100.00;96846.38;10512925;28;20336;-78
2022/08/23 16:17:55;;;;;;;9.98;5.63;;;;;;;18.26;100.00;96849.63;10513318;28;20190;-78
2022/08/23 16:22:55;;;;;;;11.13;5.82;;;;;;;18.03;100.00;96849.19;10531266;28;20189;-78
2022/08/23 16:27:56;;;;;;;7.63;5.93;;;;;;;18.06;100.00;96846.94;10530706;28;20194;-77
2022/08/23 16:32:57;;;;;;;9.82;5.80;;;;;;;18.02;100.00;96853.66;10534862;28;20205;-78
2022/08/23 16:37:57;;;;;;;9.77;5.93;;;;;;;17.87;100.00;96855.63;10570112;28;20261;-77
2022/08/23 16:42:58;;;;;;;9.55;5.88;;;;;;;17.97;100.00;96850.78;10571201;28;20186;-78
2022/08/23 16:47:58;;;;;;;13.20;6.93;;;;;;;17.95;100.00;96852.84;10542245;28;20277;-79
2022/08/23 16:52:58;;;;;;;13.40;6.94;;;;;;;18.03;100.00;96851.84;10494399;28;1011017;-78
2022/08/23 16:57:59;;;;;;;8.50;6.10;;;;;;;18.49;100.00;96851.06;10532244;28;20191;-79
2022/08/23 17:03:00;;;;;;;9.75;6.63;;;;;;;18.05;100.00;96861.19;10529057;28;20728;-79
2022/08/23 17:08:01;;;;;;;8.13;6.38;;;;;;;18.17;100.00;96854.28;10528276;28;20282;-76
2022/08/23 17:13:03;;;;;;;9.40;6.30;;;;;;;18.07;100.00;96861.00;10535092;28;20767;-76
2022/08/23 17:18:04;;;;;;;10.25;7.30;;;;;;;17.66;100.00;96878.59;10510556;28;20731;-76
2022/08/23 17:23:06;;;;;;;10.18;6.50;;;;;;;18.00;100.00;96868.94;10529179;28;20190;-76
2022/08/23 17:28:06;;;;;;;12.10;5.97;;;;;;;17.98;100.00;96869.16;10530260;28;20277;-76
2022/08/23 17:33:07;;;;;;;5.78;5.28;;;;;;;18.16;100.00;96867.75;10529915;28;20276;-76
2022/08/23 17:38:08;;;;;;;8.30;6.20;;;;;;;17.90;100.00;96882.59;10529551;28;20214;-76
2022/08/23 17:43:08;;;;;;;12.18;6.88;;;;;;;17.67;100.00;96896.09;10530307;28;20183;-76
2022/08/23 17:48:10;;;;;;;9.85;6.70;;;;;;;17.57;100.00;96907.06;10530254;28;20202;-76
2022/08/23 17:53:11;;;;;;;8.10;6.88;;;;;;;17.38;100.00;96911.25;10530251;28;20222;-75
2022/08/23 17:58:13;;;;;;;12.45;7.45;;;;;;;17.23;100.00;96923.78;10536905;28;20194;-75
2022/08/23 18:03:13;;;;;;;13.93;8.07;;;;;;;16.98;100.00;96940.06;10536302;28;20250;-75
2022/08/23 18:08:13;;;;;;;13.07;8.73;;;;;;;16.90;100.00;96948.97;10537116;28;20205;-75
2022/08/23 18:13:14;;;;;;;12.60;9.13;;;;;;;16.84;100.00;96955.00;10536513;28;20210;-75
2022/08/23 18:18:14;;;;;;;12.73;8.93;;;;;;;16.71;100.00;96966.28;10535807;28;20203;-75
2022/08/23 18:23:16;;;;;;;13.45;9.05;;;;;;;16.64;100.00;96977.81;10535490;28;20550;-75
2022/08/23 18:28:16;;;;;;;13.98;8.68;;;;;;;16.68;100.00;96984.38;10538959;28;20190;-77
2022/08/23 18:33:18;;;;;;;10.57;9.23;;;;;;;16.53;100.00;96987.06;10534875;28;20213;-76
2022/08/23 18:38:19;;;;;;;14.88;11.25;;;;;;;16.04;100.00;97010.47;10535557;28;20246;-76
2022/08/23 18:43:21;;;;;;;15.35;11.48;;;;;;;15.91;100.00;97014.78;10516923;28;20281;-74
2022/08/23 18:48:22;;;;;;;13.55;11.15;;;;;;;16.08;100.00;97033.91;10535345;28;20190;-74
2022/08/23 18:53:23;;;;;;;14.30;9.70;;;;;;;16.23;100.00;97042.63;10516156;28;20245;-74
2022/08/23 18:58:23;;;;;;;10.98;9.52;;;;;;;16.22;100.00;97044.47;10534134;28;20191;-74
2022/08/23 19:03:23;;;;;;;11.40;9.60;;;;;;;16.27;100.00;97058.97;10534063;28;20187;-76
2022/08/23 19:08:24;;;;;;;12.35;10.15;;;;;;;16.32;100.00;97056.56;10533803;28;20194;-76
2022/08/23 19:13:25;;;;;;;12.63;9.95;;;;;;;16.33;100.00;97059.03;10535418;28;20233;-76
2022/08/23 19:18:26;;;;;;;12.90;9.63;;;;;;;16.33;100.00;97058.22;10534459;28;20186;-73
2022/08/23 19:23:27;;;;;;;13.73;9.48;;;;;;;16.33;100.00;97066.97;10535021;28;20580;-74
2022/08/23 19:28:27;;;;;;;12.90;9.20;;;;;;;16.31;100.00;97068.16;10534758;28;20249;-73
2022/08/23 19:33:28;;;;;;;11.57;10.27;;;;;;;16.27;100.00;97061.59;10515773;28;20211;-75
2022/08/23 19:38:29;;;;;;;10.77;9.68;;;;;;;16.30;100.00;97067.34;10534659;28;20287;-74
2022/08/23 19:43:29;;;;;;;12.10;9.68;;;;;;;16.32;100.00;97072.44;10533956;28;20191;-74
2022/08/23 19:48:30;;;;;;;11.80;9.40;;;;;;;16.33;100.00;97072.25;10534090;28;20658;-74
2022/08/23 19:53:30;;;;;;;11.73;9.43;;;;;;;16.31;100.00;97071.63;10532883;28;20634;-74
2022/08/23 19:58:31;;;;;;;11.20;9.70;;;;;;;16.20;100.00;97067.63;10533887;28;20269;-74
2022/08/23 20:03:31;;;;;;;13.10;10.25;;;;;;;16.21;100.00;97068.44;10532908;28;20187;-75
2022/08/23 20:08:31;;;;;;;13.65;11.13;;;;;;;16.10;100.00;97077.66;10533425;28;20220;-74
2022/08/23 20:13:32;;;;;;;12.27;10.35;;;;;;;16.23;100.00;97079.63;10514660;28;20229;-74
2022/08/23 20:18:33;;;;;;;14.50;11.68;;;;;;;16.07;100.00;97080.66;10532997;28;20194;-75
2022/08/23 20:28:52;;;;;;;12.70;9.95;;;;;;;16.26;100.00;97079.28;10532745;28;20194;-74
2022/08/23 20:33:53;;;;;;;11.05;9.55;;;;;;;16.25;100.00;97071.53;10497814;28;20686;-74
2022/08/23 20:38:57;;;;;;;11.63;10.45;;;;;;;16.28;100.00;97071.16;10532909;28;20677;-74
2022/08/23 20:43:57;;;;;;;12.57;10.10;;;;;;;16.30;100.00;97075.25;10514695;28;20186;-74
2022/08/23 20:48:58;;;;;;;9.98;8.90;;;;;;;16.21;100.00;97074.53;10532443;28;20187;-74
2022/08/23 20:53:59;;;;;;;13.45;9.88;;;;;;;16.20;100.00;97074.72;10531942;28;20307;-74
2022/08/23 20:58:59;;;;;;;12.65;10.07;;;;;;;16.04;100.00;97083.66;10531607;28;20198;-74
2022/08/23 21:04:00;;;;;;;14.02;10.18;;;;;;;16.10;100.00;97082.13;10532622;28;20634;-74
2022/08/23 21:09:00;;;;;;;12.25;10.98;;;;;;;16.08;100.00;97086.75;10531596;28;20190;-74
2022/08/23 21:14:01;;;;;;;11.10;10.00;;;;;;;16.12;100.00;97077.47;10532352;28;20725;-74
2022/08/23 21:19:01;;;;;;;16.45;9.75;;;;;;;16.08;100.00;97084.13;10531332;28;20175;-75
2022/08/23 21:24:02;;;;;;;11.63;9.73;;;;;;;16.12;100.00;97094.13;10532011;28;20193;-74
2022/08/23 21:29:03;;;;;;;11.18;10.05;;;;;;;16.05;100.00;97083.47;10534690;28;20531;-74
2022/08/23 21:34:03;;;;;;;17.23;10.77;;;;;;;16.02;100.00;97083.84;10539299;28;20226;-74
2022/08/23 21:39:04;;;;;;;12.25;10.95;;;;;;;16.03;100.00;97080.22;10539891;28;20560;-74
2022/08/23 21:44:07;;;;;;;13.02;9.77;;;;;;;16.07;100.00;97074.56;10539103;28;20190;-74
2022/08/23 21:49:08;;;;;;;10.98;9.70;;;;;;;15.99;100.00;97078.94;10539064;28;20194;-74
2022/08/23 21:54:10;;;;;;;14.75;10.57;;;;;;;15.99;100.00;97075.47;10538898;28;20565;-74
2022/08/23 21:59:13;;;;;;;19.75;10.07;;;;;;;15.95;100.00;97076.81;10538097;28;20199;-74
2022/08/23 22:04:14;;;;;;;13.85;9.90;;;;;;;15.94;100.00;97072.53;10518652;28;20604;-76
2022/08/23 22:09:18;;;;;;;16.60;10.02;;;;;;;15.90;100.00;97076.56;10498121;28;20195;-75
2022/08/23 22:14:20;;;;;;;12.75;11.25;;;;;;;15.79;100.00;97068.06;10497860;28;20841;-75
2022/08/23 22:19:21;;;;;;;13.00;10.88;;;;;;;15.82;100.00;97072.19;10497110;28;20195;-75
2022/08/23 22:24:21;;;;;;;11.57;10.38;;;;;;;15.80;100.00;97077.66;10479553;28;20187;-75
2022/08/23 22:29:22;;;;;;;11.18;9.98;;;;;;;15.73;100.00;97073.19;10497618;28;20194;-75
2022/08/23 22:34:22;;;;;;;12.65;11.00;;;;;;;15.67;100.00;97066.84;10478416;28;20223;-75
2022/08/23 22:39:23;;;;;;;18.40;12.05;;;;;;;15.54;100.00;97064.78;10497153;28;20198;-76
2022/08/23 22:44:24;;;;;;;19.05;11.60;;;;;;;15.55;100.00;97061.16;10496559;28;20190;-73
2022/08/23 22:49:25;;;;;;;13.98;11.73;;;;;;;15.60;100.00;97064.06;10496182;28;20194;-75
2022/08/23 22:54:25;;;;;;;13.40;10.77;;;;;;;15.58;100.00;97066.09;10506216;28;20234;-75
2022/08/23 22:59:25;;;;;;;15.52;10.73;;;;;;;15.46;100.00;97059.59;10537377;28;20190;-75
2022/08/23 23:04:27;;;;;;;17.50;11.25;;;;;;;15.32;100.00;97062.03;10538170;28;20700;-75
2022/08/23 23:09:27;;;;;;;15.80;11.52;;;;;;;15.26;100.00;97052.16;10537188;28;20190;-75
2022/08/23 23:14:28;;;;;;;22.50;12.70;;;;;;;15.18;100.00;97057.53;10534018;28;20224;-75
2022/08/23 23:24:47;;;;;;;16.83;12.02;;;;;;;15.15;100.00;97069.25;10536954;28;20194;-75
2022/08/23 23:29:47;;;;;;;15.82;12.93;;;;;;;15.18;100.00;97077.84;10536391;28;20194;-75